Time;durP1;ratioP1;P1;durP2;ratioP2;P2;SDS_P1;SDS_P2;PMS_P1;PMS_P2;Temp;Humidity;BMP_temperature;BMP_pressure;BME280_temperature;BME280_humidity;BME280_pressure;Samples;Min_cycle;Max_cycle;Signal;HPM_P1;HPM_P2
2021/05/21 00:00:25;;;;;;;;;;;;;;;9.47;90.92;95980.72;1278569;23;19915;-63
2021/05/21 00:00:55;;;;;;;;;;;;;;;9.49;90.96;95973.28;1278685;23;19910;-62
2021/05/21 00:01:25;;;;;;;;;;;;;;;9.50;90.85;95980.22;1278574;23;19928;-63
2021/05/21 00:01:56;;;;;;;;;;;;;;;9.43;91.07;95971.69;1279039;23;19908;-61
2021/05/21 00:02:27;;;;;;;;;;;;;;;9.44;90.98;95976.75;1278877;23;19908;-62
2021/05/21 00:03:01;;;;;;;;;;;;;;;9.47;90.99;95978.06;1278663;23;19904;-62
2021/05/21 00:03:32;;;;;;;;;;;;;;;9.46;91.40;95971.94;1278559;23;19963;-62
2021/05/21 00:04:02;;;;;;;;;;;;;;;9.42;91.45;95976.22;1278683;23;19904;-62
2021/05/21 00:04:32;;;;;;;;;;;;;;;9.44;91.03;95975.94;1272034;23;19913;-62
2021/05/21 00:05:03;;;;;;;;;;;;;;;9.47;91.16;95965.56;1272386;23;19911;-63
2021/05/21 00:05:33;;;;;;;;;;;;;;;9.43;91.18;95963.69;1266395;23;20319;-63
2021/05/21 00:06:03;;;;;;;;;;;;;;;9.45;90.88;95966.88;1266435;23;20273;-63
2021/05/21 00:06:34;;;;;;;;;;;;;;;9.43;90.89;95953.00;1272426;23;19924;-62
2021/05/21 00:07:04;;;;;;;;;;;;;;;9.40;91.03;95953.53;1272479;23;20247;-62
2021/05/21 00:07:34;;;;;;;;;;;;;;;9.36;91.18;95953.22;1278617;23;19909;-62
2021/05/21 00:08:05;;;;;;;;;;;;;;;9.33;91.57;95949.25;1278633;23;19904;-63
2021/05/21 00:08:35;;;;;;;;;;;;;;;9.33;91.20;95951.91;1272333;23;19909;-63
2021/05/21 00:09:05;;;;;;;;;;;;;;;9.34;91.22;95961.50;1272451;23;19940;-62
2021/05/21 00:09:35;;;;;;;;;;;;;;;9.32;91.26;95960.19;1272389;23;19943;-63
2021/05/21 00:10:06;;;;;;;;;;;;;;;9.25;91.80;95955.06;1278685;23;20289;-62
2021/05/21 00:10:36;;;;;;;;;;;;;;;9.27;92.04;95955.63;1272263;23;20326;-62
2021/05/21 00:11:07;;;;;;;;;;;;;;;9.30;91.74;95954.28;1272407;23;20123;-63
2021/05/21 00:11:37;;;;;;;;;;;;;;;9.30;91.64;95949.75;1272408;23;19915;-63
2021/05/21 00:12:07;;;;;;;;;;;;;;;9.29;91.66;95950.81;1272655;23;20338;-63
2021/05/21 00:12:38;;;;;;;;;;;;;;;9.28;91.54;95946.56;1278951;23;20357;-63
2021/05/21 00:13:08;;;;;;;;;;;;;;;9.29;91.71;95947.34;1278944;23;20310;-63
2021/05/21 00:13:38;;;;;;;;;;;;;;;9.27;91.47;95946.84;1279003;23;19908;-63
2021/05/21 00:14:08;;;;;;;;;;;;;;;9.24;91.73;95950.81;1279028;23;19904;-63
2021/05/21 00:14:39;;;;;;;;;;;;;;;9.22;92.09;95946.81;1278872;23;19916;-63
2021/05/21 00:15:09;;;;;;;;;;;;;;;9.19;91.74;95940.13;1278821;23;19910;-63
2021/05/21 00:15:40;;;;;;;;;;;;;;;9.21;91.99;95945.97;1278928;23;20315;-63
2021/05/21 00:16:10;;;;;;;;;;;;;;;9.21;91.91;95945.97;1278662;23;19911;-63
2021/05/21 00:16:40;;;;;;;;;;;;;;;9.22;91.80;95941.47;1278722;23;20345;-63
2021/05/21 00:17:10;;;;;;;;;;;;;;;9.19;91.85;95945.47;1272266;23;20314;-62
2021/05/21 00:17:41;;;;;;;;;;;;;;;9.16;92.25;95945.16;1272483;23;19916;-62
2021/05/21 00:18:11;;;;;;;;;;;;;;;9.15;92.38;95941.72;1278688;23;20234;-62
2021/05/21 00:18:41;;;;;;;;;;;;;;;9.11;92.47;95943.31;1278488;23;19908;-62
2021/05/21 00:19:12;;;;;;;;;;;;;;;9.13;92.36;95941.19;1278915;23;19933;-63
2021/05/21 00:19:42;;;;;;;;;;;;;;;9.13;92.62;95949.19;1278619;23;19908;-63
2021/05/21 00:20:12;;;;;;;;;;;;;;;9.15;92.67;95939.03;1278515;23;19912;-63
2021/05/21 00:20:43;;;;;;;;;;;;;;;9.13;92.73;95943.84;1278667;23;19940;-63
2021/05/21 00:21:13;;;;;;;;;;;;;;;9.15;92.69;95941.72;1278754;23;20334;-63
2021/05/21 00:21:44;;;;;;;;;;;;;;;9.15;92.63;95944.38;1279124;23;19958;-62
2021/05/21 00:22:14;;;;;;;;;;;;;;;9.14;92.34;95937.44;1278470;23;20374;-62
2021/05/21 00:22:45;;;;;;;;;;;;;;;9.17;92.41;95934.25;1278611;23;19904;-62
2021/05/21 00:23:16;;;;;;;;;;;;;;;9.15;92.21;95933.72;1279220;23;19904;-62
2021/05/21 00:23:46;;;;;;;;;;;;;;;9.19;92.45;95936.66;1278934;23;19904;-63
2021/05/21 00:24:17;;;;;;;;;;;;;;;9.15;92.54;95932.91;1279839;23;19904;-63
2021/05/21 00:24:47;;;;;;;;;;;;;;;9.16;92.39;95937.97;1280536;23;19904;-62
2021/05/21 00:25:17;;;;;;;;;;;;;;;9.17;92.52;95936.13;1280913;23;19927;-63
2021/05/21 00:25:47;;;;;;;;;;;;;;;9.16;92.60;95931.84;1280606;23;19908;-63
2021/05/21 00:26:18;;;;;;;;;;;;;;;9.11;92.83;95941.44;1280290;23;19904;-63
2021/05/21 00:26:50;;;;;;;;;;;;;;;9.11;92.67;95936.13;1280320;23;19908;-63
2021/05/21 00:27:20;;;;;;;;;;;;;;;9.11;93.53;95940.66;1280016;23;19948;-63
2021/05/21 00:27:50;;;;;;;;;;;;;;;9.15;93.09;95946.25;1280344;23;19904;-63
2021/05/21 00:28:21;;;;;;;;;;;;;;;9.13;93.26;95938.50;1280618;23;19900;-63
2021/05/21 00:28:51;;;;;;;;;;;;;;;9.12;92.77;95942.25;1280508;23;19905;-63
2021/05/21 00:29:22;;;;;;;;;;;;;;;9.14;93.12;95939.31;1280126;23;19931;-63
2021/05/21 00:29:52;;;;;;;;;;;;;;;9.11;92.92;95936.13;1280604;23;19911;-62
2021/05/21 00:30:22;;;;;;;;;;;;;;;9.13;93.09;95941.19;1274158;23;19928;-63
2021/05/21 00:30:53;;;;;;;;;;;;;;;9.14;92.79;95940.09;1280321;23;19904;-63
2021/05/21 00:31:23;;;;;;;;;;;;;;;9.13;92.65;95935.03;1280367;23;19908;-63
2021/05/21 00:31:53;;;;;;;;;;;;;;;9.13;92.74;95938.50;1280428;23;19904;-63
2021/05/21 00:32:23;;;;;;;;;;;;;;;9.11;92.99;95928.13;1280728;23;20229;-63
2021/05/21 00:32:54;;;;;;;;;;;;;;;9.09;93.14;95930.22;1280837;23;19927;-63
2021/05/21 00:33:24;;;;;;;;;;;;;;;9.11;93.21;95933.44;1280870;23;19908;-63
2021/05/21 00:33:54;;;;;;;;;;;;;;;9.05;93.04;95931.00;1280427;23;19955;-63
2021/05/21 00:34:26;;;;;;;;;;;;;;;9.06;93.47;95929.97;1280309;23;19915;-62
2021/05/21 00:34:56;;;;;;;;;;;;;;;9.07;93.40;95929.69;1279496;23;19904;-62
2021/05/21 00:35:27;;;;;;;;;;;;;;;9.02;93.50;95918.22;1278946;23;19900;-62
2021/05/21 00:35:57;;;;;;;;;;;;;;;9.00;93.53;95923.00;1278962;23;20322;-62
2021/05/21 00:36:27;;;;;;;;;;;;;;;9.00;93.66;95920.31;1278397;23;19900;-62
2021/05/21 00:36:57;;;;;;;;;;;;;;;8.98;93.72;95922.47;1278610;23;19928;-62
2021/05/21 00:37:28;;;;;;;;;;;;;;;8.99;93.51;95922.19;1278456;23;19900;-62
2021/05/21 00:37:58;;;;;;;;;;;;;;;8.97;93.50;95921.66;1278559;23;19932;-62
2021/05/21 00:38:28;;;;;;;;;;;;;;;8.93;93.63;95917.91;1278847;23;19900;-62
2021/05/21 00:38:58;;;;;;;;;;;;;;;8.93;93.96;95920.56;1278971;23;20225;-62
2021/05/21 00:39:29;;;;;;;;;;;;;;;8.96;93.96;95912.06;1278813;23;20333;-62
2021/05/21 00:39:59;;;;;;;;;;;;;;;8.96;93.70;95911.28;1278978;23;19951;-62
2021/05/21 00:40:29;;;;;;;;;;;;;;;8.98;93.52;95914.47;1278835;23;19931;-62
2021/05/21 00:41:00;;;;;;;;;;;;;;;8.97;93.63;95912.88;1278989;23;19896;-61
2021/05/21 00:41:30;;;;;;;;;;;;;;;8.98;93.72;95914.47;1278926;23;19979;-61
2021/05/21 00:42:00;;;;;;;;;;;;;;;8.93;93.62;95909.91;1278719;23;19930;-62
2021/05/21 00:42:31;;;;;;;;;;;;;;;8.90;94.07;95914.97;1278836;23;19896;-62
2021/05/21 00:43:02;;;;;;;;;;;;;;;8.84;94.19;95914.13;1278926;23;19958;-62
2021/05/21 00:43:32;;;;;;;;;;;;;;;8.90;94.02;95906.97;1278960;23;19896;-62
2021/05/21 00:44:02;;;;;;;;;;;;;;;8.91;94.10;95908.59;1278911;23;19919;-62
2021/05/21 00:44:33;;;;;;;;;;;;;;;8.88;94.29;95909.09;1278938;23;19896;-62
2021/05/21 00:45:03;;;;;;;;;;;;;;;8.92;94.10;95905.66;1279001;23;19902;-62
2021/05/21 00:45:33;;;;;;;;;;;;;;;8.87;94.12;95907.50;1278950;23;19904;-62
2021/05/21 00:46:04;;;;;;;;;;;;;;;8.83;94.54;95902.69;1278954;23;20277;-62
2021/05/21 00:46:34;;;;;;;;;;;;;;;8.86;94.60;95901.38;1279304;23;19927;-62
2021/05/21 00:47:04;;;;;;;;;;;;;;;8.80;94.71;95903.22;1278960;23;19897;-62
2021/05/21 00:47:35;;;;;;;;;;;;;;;8.81;94.70;95907.47;1279345;23;20425;-62
2021/05/21 00:48:05;;;;;;;;;;;;;;;8.79;94.39;95906.13;1279319;23;19946;-63
2021/05/21 00:48:35;;;;;;;;;;;;;;;8.77;94.95;95901.06;1279317;23;20015;-62
2021/05/21 00:49:06;;;;;;;;;;;;;;;8.81;94.77;95899.47;1279364;23;19896;-63
2021/05/21 00:49:36;;;;;;;;;;;;;;;8.80;95.12;95905.88;1279111;23;20325;-62
2021/05/21 00:50:06;;;;;;;;;;;;;;;8.81;95.40;95904.00;1279251;23;20303;-63
2021/05/21 00:50:36;;;;;;;;;;;;;;;8.81;95.22;95904.00;1279324;23;19912;-63
2021/05/21 00:51:07;;;;;;;;;;;;;;;8.84;95.08;95900.81;1279360;23;20334;-62
2021/05/21 00:51:37;;;;;;;;;;;;;;;8.82;95.08;95898.41;1279352;23;19897;-63
2021/05/21 00:52:07;;;;;;;;;;;;;;;8.87;94.94;95897.63;1279119;23;19912;-63
2021/05/21 00:52:38;;;;;;;;;;;;;;;8.87;94.67;95902.16;1279053;23;20246;-63
2021/05/21 00:53:08;;;;;;;;;;;;;;;8.87;94.44;95896.84;1279382;23;19947;-63
2021/05/21 00:53:38;;;;;;;;;;;;;;;8.85;95.00;95899.75;1279301;23;19931;-63
2021/05/21 00:54:09;;;;;;;;;;;;;;;8.87;94.56;95900.31;1279274;23;19931;-63
2021/05/21 00:54:39;;;;;;;;;;;;;;;8.80;94.56;95897.06;1278834;23;19908;-63
2021/05/21 00:55:09;;;;;;;;;;;;;;;8.75;94.39;95895.19;1278962;23;19904;-62
2021/05/21 00:55:40;;;;;;;;;;;;;;;8.74;94.89;95903.44;1278900;23;19990;-63
2021/05/21 00:56:10;;;;;;;;;;;;;;;8.78;94.51;95894.66;1279022;23;19904;-63
2021/05/21 00:56:40;;;;;;;;;;;;;;;8.80;94.37;95889.06;1279022;23;20321;-63
2021/05/21 00:57:11;;;;;;;;;;;;;;;8.79;94.36;95890.94;1279142;23;19967;-63
2021/05/21 00:57:41;;;;;;;;;;;;;;;8.82;94.38;95889.63;1278844;23;19904;-63
2021/05/21 00:58:11;;;;;;;;;;;;;;;8.82;94.39;95893.09;1278946;23;19904;-62
2021/05/21 00:58:42;;;;;;;;;;;;;;;8.82;93.83;95889.63;1278770;23;19904;-62
2021/05/21 00:59:12;;;;;;;;;;;;;;;8.81;93.69;95890.69;1278954;23;19916;-62
2021/05/21 00:59:43;;;;;;;;;;;;;;;8.80;93.68;95889.06;1279306;23;20226;-62
2021/05/21 01:00:13;;;;;;;;;;;;;;;8.81;93.83;95883.50;1279279;23;19940;-62
2021/05/21 01:00:43;;;;;;;;;;;;;;;8.79;94.05;95884.81;1279245;23;20341;-62
2021/05/21 01:01:14;;;;;;;;;;;;;;;8.80;93.94;95887.22;1279359;23;19909;-63
2021/05/21 01:01:45;;;;;;;;;;;;;;;8.80;94.23;95883.75;1279148;23;19927;-63
2021/05/21 01:02:15;;;;;;;;;;;;;;;8.80;94.22;95892.56;1279163;23;19935;-62
2021/05/21 01:02:45;;;;;;;;;;;;;;;8.80;94.03;95899.72;1279255;23;19920;-62
2021/05/21 01:03:15;;;;;;;;;;;;;;;8.75;94.08;95887.22;1278739;23;20014;-63
2021/05/21 01:03:46;;;;;;;;;;;;;;;8.73;94.42;95891.19;1278885;23;20003;-62
2021/05/21 01:04:16;;;;;;;;;;;;;;;8.75;94.31;95891.72;1279005;23;20330;-63
2021/05/21 01:04:46;;;;;;;;;;;;;;;8.69;94.30;95890.88;1278873;23;19911;-63
2021/05/21 01:05:17;;;;;;;;;;;;;;;8.69;94.32;95896.22;1279393;23;19930;-63
2021/05/21 01:05:47;;;;;;;;;;;;;;;8.67;94.54;95890.34;1278951;23;19904;-63
2021/05/21 01:06:17;;;;;;;;;;;;;;;8.68;94.61;95894.63;1279010;23;20326;-63
2021/05/21 01:06:47;;;;;;;;;;;;;;;8.69;94.58;95890.88;1278885;23;19904;-63
2021/05/21 01:07:18;;;;;;;;;;;;;;;8.70;94.78;95897.84;1278929;23;20249;-63
2021/05/21 01:07:49;;;;;;;;;;;;;;;8.68;94.60;95894.63;1279324;23;19904;-63
2021/05/21 01:08:19;;;;;;;;;;;;;;;8.68;94.77;95886.63;1278972;23;20006;-63
2021/05/21 01:08:49;;;;;;;;;;;;;;;8.66;94.88;95886.09;1278886;23;19927;-63
2021/05/21 01:09:19;;;;;;;;;;;;;;;8.64;95.14;95887.41;1278901;23;19908;-61
2021/05/21 01:09:50;;;;;;;;;;;;;;;8.66;94.78;95888.75;1278879;23;19904;-62
2021/05/21 01:10:20;;;;;;;;;;;;;;;8.67;94.68;95882.38;1278918;23;19908;-62
2021/05/21 01:10:51;;;;;;;;;;;;;;;8.69;94.35;95885.56;1278945;23;19904;-62
2021/05/21 01:11:21;;;;;;;;;;;;;;;8.71;94.56;95887.97;1278877;23;20313;-63
2021/05/21 01:11:51;;;;;;;;;;;;;;;8.66;94.29;95885.31;1278828;23;19904;-62
2021/05/21 01:12:21;;;;;;;;;;;;;;;8.67;94.37;95887.69;1279364;23;19914;-62
2021/05/21 01:12:52;;;;;;;;;;;;;;;8.69;94.21;95888.22;1279316;23;19904;-63
2021/05/21 01:13:22;;;;;;;;;;;;;;;8.68;94.34;95886.63;1279156;23;19984;-62
2021/05/21 01:13:52;;;;;;;;;;;;;;;8.68;94.55;95889.28;1279118;23;20433;-62
2021/05/21 01:14:22;;;;;;;;;;;;;;;8.71;94.43;95886.13;1279419;23;19912;-63
2021/05/21 01:14:53;;;;;;;;;;;;;;;8.73;94.04;95889.31;1279329;23;19926;-63
2021/05/21 01:15:24;;;;;;;;;;;;;;;8.73;94.23;95891.19;1279252;23;19909;-63
2021/05/21 01:15:54;;;;;;;;;;;;;;;8.73;93.59;95883.19;1279247;23;19904;-63
2021/05/21 01:16:24;;;;;;;;;;;;;;;8.74;94.00;95893.56;1279389;23;19912;-63
2021/05/21 01:16:55;;;;;;;;;;;;;;;8.73;94.19;95891.19;1279529;23;19943;-63
2021/05/21 01:17:25;;;;;;;;;;;;;;;8.77;94.00;95892.28;1279454;23;19908;-63
2021/05/21 01:17:55;;;;;;;;;;;;;;;8.78;94.05;95893.88;1279576;23;20384;-63
2021/05/21 01:18:25;;;;;;;;;;;;;;;8.75;93.91;95887.22;1279512;23;19999;-62
2021/05/21 01:18:56;;;;;;;;;;;;;;;8.74;94.06;95898.09;1279706;23;19927;-63
2021/05/21 01:19:26;;;;;;;;;;;;;;;8.75;93.99;95897.88;1278947;23;20257;-63
2021/05/21 01:19:56;;;;;;;;;;;;;;;8.76;93.70;95896.81;1278773;23;19904;-62
2021/05/21 01:20:29;;;;;;;;;;;;;;;8.77;93.56;95890.41;1278725;23;19905;-62
2021/05/21 01:20:59;;;;;;;;;;;;;;;8.77;93.71;95886.94;1279190;23;19911;-61
2021/05/21 01:21:33;;;;;;;;;;;;;;;8.76;93.65;95890.66;1279242;23;19931;-62
2021/05/21 01:22:03;;;;;;;;;;;;;;;8.78;93.92;95884.00;1279293;23;19958;-63
2021/05/21 01:22:33;;;;;;;;;;;;;;;8.74;93.66;95880.25;1279247;23;19994;-63
2021/05/21 01:23:04;;;;;;;;;;;;;;;8.76;93.86;95883.47;1279181;23;19904;-63
2021/05/21 01:23:34;;;;;;;;;;;;;;;8.74;93.70;95877.59;1279124;23;19987;-63
2021/05/21 01:24:06;;;;;;;;;;;;;;;8.74;93.87;95879.47;1279245;23;19904;-62
2021/05/21 01:24:36;;;;;;;;;;;;;;;8.74;93.70;95874.13;1279278;23;19936;-62
2021/05/21 01:25:07;;;;;;;;;;;;;;;8.73;93.94;95868.00;1279277;23;19904;-62
2021/05/21 01:25:37;;;;;;;;;;;;;;;8.73;93.87;95864.53;1279251;23;20282;-62
2021/05/21 01:26:07;;;;;;;;;;;;;;;8.72;94.13;95866.41;1279195;23;19919;-63
2021/05/21 01:26:38;;;;;;;;;;;;;;;8.69;93.95;95856.25;1279320;23;19911;-62
2021/05/21 01:27:09;;;;;;;;;;;;;;;8.64;94.36;95856.22;1279233;23;19904;-63
2021/05/21 01:27:39;;;;;;;;;;;;;;;8.65;94.47;95868.50;1279232;23;19911;-63
2021/05/21 01:28:12;;;;;;;;;;;;;;;8.63;94.41;95865.28;1278562;23;20353;-63
2021/05/21 01:28:42;;;;;;;;;;;;;;;8.64;94.56;95866.09;1278893;23;19910;-62
2021/05/21 01:29:13;;;;;;;;;;;;;;;8.62;94.43;95865.56;1278821;23;19931;-62
2021/05/21 01:29:43;;;;;;;;;;;;;;;8.59;94.63;95865.00;1278808;23;19986;-62
2021/05/21 01:30:13;;;;;;;;;;;;;;;8.57;94.74;95866.34;1279269;23;19908;-62
2021/05/21 01:30:44;;;;;;;;;;;;;;;8.54;95.06;95857.00;1279342;23;20341;-62
2021/05/21 01:31:14;;;;;;;;;;;;;;;8.55;94.82;95860.47;1278776;23;19905;-63
2021/05/21 01:31:45;;;;;;;;;;;;;;;8.47;95.21;95850.31;1278866;23;20403;-63
2021/05/21 01:32:15;;;;;;;;;;;;;;;8.43;95.65;95858.00;1278788;23;19934;-63
2021/05/21 01:32:45;;;;;;;;;;;;;;;8.46;95.57;95860.16;1278957;23;19939;-61
2021/05/21 01:33:16;;;;;;;;;;;;;;;8.49;95.17;95854.31;1279133;23;19915;-62
2021/05/21 01:33:46;;;;;;;;;;;;;;;8.53;95.71;95850.06;1279298;23;19908;-62
2021/05/21 01:34:17;;;;;;;;;;;;;;;8.52;95.39;95855.66;1278644;23;20322;-63
2021/05/21 01:34:47;;;;;;;;;;;;;;;8.55;95.32;95852.50;1278812;23;19908;-62
2021/05/21 01:35:17;;;;;;;;;;;;;;;8.54;95.25;95856.19;1278792;23;19912;-62
2021/05/21 01:35:48;;;;;;;;;;;;;;;8.57;94.82;95853.81;1272686;23;20229;-62
2021/05/21 01:36:18;;;;;;;;;;;;;;;8.54;95.10;95853.53;1272687;23;20342;-62
2021/05/21 01:36:48;;;;;;;;;;;;;;;8.55;95.32;95857.81;1272824;23;19904;-62
2021/05/21 01:37:19;;;;;;;;;;;;;;;8.56;94.85;95854.09;1278766;23;19932;-63
2021/05/21 01:37:50;;;;;;;;;;;;;;;8.54;95.02;95851.66;1279245;23;20233;-63
2021/05/21 01:38:20;;;;;;;;;;;;;;;8.51;95.37;95846.88;1279147;23;19908;-62
2021/05/21 01:38:57;;;;;;;;;;;;;;;8.54;95.05;95850.88;1278996;23;20241;-62
2021/05/21 01:39:34;;;;;;;;;;;;;;;8.52;95.11;95847.66;1278979;23;19907;-62
2021/05/21 01:40:04;;;;;;;;;;;;;;;8.56;94.78;95851.41;1279184;23;20346;-62
2021/05/21 01:40:37;;;;;;;;;;;;;;;8.56;95.08;95849.56;1278747;23;19904;-62
2021/05/21 01:41:08;;;;;;;;;;;;;;;8.57;94.69;95843.16;1278881;23;19904;-63
2021/05/21 01:41:38;;;;;;;;;;;;;;;8.59;94.77;95843.69;1272584;23;20021;-62
2021/05/21 01:42:12;;;;;;;;;;;;;;;8.59;94.70;95843.69;1273278;23;19904;-62
2021/05/21 01:42:42;;;;;;;;;;;;;;;8.61;94.82;95847.97;1278862;23;19904;-62
2021/05/21 01:43:12;;;;;;;;;;;;;;;8.59;94.59;95846.34;1278920;23;20004;-62
2021/05/21 01:43:43;;;;;;;;;;;;;;;8.55;94.90;95841.84;1279226;23;19979;-62
2021/05/21 01:44:14;;;;;;;;;;;;;;;8.56;94.85;95840.78;1279084;23;19912;-62
2021/05/21 01:44:45;;;;;;;;;;;;;;;8.53;94.92;95844.75;1278749;23;19908;-63
2021/05/21 01:45:15;;;;;;;;;;;;;;;8.54;94.70;95840.22;1278874;23;19905;-62
2021/05/21 01:45:45;;;;;;;;;;;;;;;8.57;95.09;95842.38;1278729;23;19904;-63
2021/05/21 01:46:15;;;;;;;;;;;;;;;8.53;94.58;95847.41;1278892;23;19904;-62
2021/05/21 01:46:46;;;;;;;;;;;;;;;8.53;94.98;95841.28;1279223;23;19908;-62
2021/05/21 01:47:16;;;;;;;;;;;;;;;8.56;94.69;95843.44;1278827;23;19935;-62
2021/05/21 01:47:47;;;;;;;;;;;;;;;8.58;94.71;95847.41;1278831;23;19911;-62
2021/05/21 01:48:17;;;;;;;;;;;;;;;8.59;94.46;95840.22;1278581;23;19976;-62
2021/05/21 01:48:47;;;;;;;;;;;;;;;8.58;94.70;95839.44;1272796;23;19916;-65
2021/05/21 01:49:18;;;;;;;;;;;;;;;8.58;94.59;95835.97;1278866;23;19904;-62
2021/05/21 01:49:48;;;;;;;;;;;;;;;8.60;94.56;95833.88;1278851;23;19908;-62
2021/05/21 01:50:18;;;;;;;;;;;;;;;8.60;94.52;95841.84;1278732;23;19908;-62
2021/05/21 01:50:49;;;;;;;;;;;;;;;8.59;94.03;95838.38;1279166;23;19950;-62
2021/05/21 01:51:19;;;;;;;;;;;;;;;8.58;93.96;95835.97;1279208;23;19954;-62
2021/05/21 01:51:50;;;;;;;;;;;;;;;8.59;93.97;95837.56;1279039;23;19904;-62
2021/05/21 01:52:21;;;;;;;;;;;;;;;8.59;93.97;95843.69;1279155;23;19927;-62
2021/05/21 01:52:51;;;;;;;;;;;;;;;8.60;94.30;95836.53;1279158;23;19906;-62
2021/05/21 01:53:23;;;;;;;;;;;;;;;8.59;94.17;95833.03;1278807;23;19900;-62
2021/05/21 01:54:12;;;;;;;;;;;;;;;8.56;94.40;95840.78;1278849;23;19902;-62
2021/05/21 01:54:42;;;;;;;;;;;;;;;8.56;94.63;95833.56;1278620;23;20325;-62
2021/05/21 01:55:13;;;;;;;;;;;;;;;8.54;94.79;95840.22;1278981;23;19907;-62
2021/05/21 01:55:49;;;;;;;;;;;;;;;8.54;94.36;95840.22;1279040;23;19903;-62
2021/05/21 01:56:19;;;;;;;;;;;;;;;8.47;95.04;95834.34;1279047;23;19900;-62
2021/05/21 01:56:52;;;;;;;;;;;;;;;8.49;94.82;95835.66;1279013;23;19978;-63
2021/05/21 01:57:22;;;;;;;;;;;;;;;8.48;94.90;95830.59;1279083;23;19900;-62
2021/05/21 01:57:52;;;;;;;;;;;;;;;8.47;94.97;95829.81;1278867;23;19956;-62
2021/05/21 01:58:22;;;;;;;;;;;;;;;8.48;94.86;95830.59;1279183;23;19897;-62
2021/05/21 01:58:53;;;;;;;;;;;;;;;8.46;94.92;95828.22;1278626;23;20238;-62
2021/05/21 01:59:23;;;;;;;;;;;;;;;8.47;95.00;95824.47;1278834;23;19943;-62
2021/05/21 01:59:53;;;;;;;;;;;;;;;8.46;95.09;95833.53;1278674;23;19927;-62
2021/05/21 02:00:24;;;;;;;;;;;;;;;8.47;95.18;95829.00;1278903;23;19908;-62
2021/05/21 02:00:54;;;;;;;;;;;;;;;8.48;95.33;95833.25;1278798;23;19930;-62
2021/05/21 02:01:24;;;;;;;;;;;;;;;8.49;95.05;95822.34;1278845;23;19935;-63
2021/05/21 02:01:54;;;;;;;;;;;;;;;8.47;94.95;95829.00;1272581;23;20038;-62
2021/05/21 02:02:25;;;;;;;;;;;;;;;8.48;95.11;95825.28;1272701;23;19905;-62
2021/05/21 02:02:55;;;;;;;;;;;;;;;8.40;95.47;95829.25;1278800;23;20302;-62
2021/05/21 02:03:26;;;;;;;;;;;;;;;8.40;95.55;95823.94;1278584;23;19911;-62
2021/05/21 02:03:58;;;;;;;;;;;;;;;8.40;95.87;95820.47;1279259;23;19935;-62
2021/05/21 02:04:28;;;;;;;;;;;;;;;8.37;95.97;95824.44;1279125;23;20455;-62
2021/05/21 02:04:58;;;;;;;;;;;;;;;8.41;95.39;95824.72;1279241;23;19904;-62
2021/05/21 02:05:28;;;;;;;;;;;;;;;8.40;95.19;95821.25;1279151;23;20215;-62
2021/05/21 02:05:59;;;;;;;;;;;;;;;8.40;95.31;95828.44;1279190;23;19904;-62
2021/05/21 02:06:29;;;;;;;;;;;;;;;8.36;95.70;95827.34;1279021;23;19904;-62
2021/05/21 02:06:59;;;;;;;;;;;;;;;8.35;96.05;95826.53;1279174;23;19904;-62
2021/05/21 02:07:30;;;;;;;;;;;;;;;8.30;96.28;95832.63;1279036;23;19935;-63
2021/05/21 02:08:00;;;;;;;;;;;;;;;8.34;96.08;95824.91;1279063;23;19910;-63
2021/05/21 02:08:30;;;;;;;;;;;;;;;8.36;95.91;95832.66;1279069;23;19904;-62
2021/05/21 02:09:01;;;;;;;;;;;;;;;8.32;95.92;95827.03;1279166;23;20295;-62
2021/05/21 02:09:54;;;;;;;;;;;;;;;8.35;96.00;95823.88;1278872;23;20310;-62
2021/05/21 02:10:25;;;;;;;;;;;;;;;8.33;96.17;95825.97;1267040;23;19920;-63
2021/05/21 02:10:55;;;;;;;;;;;;;;;8.36;96.18;95833.50;1279237;23;19938;-63
2021/05/21 02:11:25;;;;;;;;;;;;;;;8.33;96.09;95823.31;1278667;23;19905;-62
2021/05/21 02:11:56;;;;;;;;;;;;;;;8.32;95.95;95830.50;1278784;23;19904;-63
2021/05/21 02:12:26;;;;;;;;;;;;;;;8.33;96.09;95825.97;1278646;23;19932;-63
2021/05/21 02:12:57;;;;;;;;;;;;;;;8.32;95.86;95819.06;1278709;23;19911;-62
2021/05/21 02:13:27;;;;;;;;;;;;;;;8.32;96.16;95817.19;1279059;23;20318;-62
2021/05/21 02:13:57;;;;;;;;;;;;;;;8.32;95.90;95822.50;1279216;23;19935;-62
2021/05/21 02:14:27;;;;;;;;;;;;;;;8.35;95.99;95821.22;1279070;23;20327;-62
2021/05/21 02:14:58;;;;;;;;;;;;;;;8.34;95.95;95815.09;1279179;23;19910;-62
2021/05/21 02:15:29;;;;;;;;;;;;;;;8.34;96.23;95824.91;1279064;23;19904;-62
2021/05/21 02:15:59;;;;;;;;;;;;;;;8.33;96.17;95818.00;1279395;23;19912;-62
2021/05/21 02:16:29;;;;;;;;;;;;;;;8.35;95.85;95823.88;1280984;23;20245;-63
2021/05/21 02:16:59;;;;;;;;;;;;;;;8.32;95.96;95822.50;1280838;23;19911;-63
2021/05/21 02:17:30;;;;;;;;;;;;;;;8.32;95.92;95819.06;1280329;23;19908;-63
2021/05/21 02:18:00;;;;;;;;;;;;;;;8.32;96.01;95813.72;1280558;23;19928;-63
2021/05/21 02:18:30;;;;;;;;;;;;;;;8.33;95.96;95824.09;1280702;23;19904;-63
2021/05/21 02:19:01;;;;;;;;;;;;;;;8.30;96.02;95816.66;1280960;23;19908;-63
2021/05/21 02:19:31;;;;;;;;;;;;;;;8.29;96.17;95809.75;1281464;23;19927;-65
2021/05/21 02:20:02;;;;;;;;;;;;;;;8.30;96.03;95819.31;1281485;23;19934;-63
2021/05/21 02:20:33;;;;;;;;;;;;;;;8.33;96.36;95818.00;1281241;23;19912;-62
2021/05/21 02:21:03;;;;;;;;;;;;;;;8.35;96.13;95813.22;1280458;23;19928;-63
2021/05/21 02:21:34;;;;;;;;;;;;;;;8.32;96.03;95814.53;1280881;23;20322;-63
2021/05/21 02:22:06;;;;;;;;;;;;;;;8.34;96.02;95808.94;1280448;23;19904;-62
2021/05/21 02:22:37;;;;;;;;;;;;;;;8.40;96.00;95807.16;1280910;23;20364;-63
2021/05/21 02:23:07;;;;;;;;;;;;;;;8.39;95.38;95810.84;1281730;23;19904;-63
2021/05/21 02:23:38;;;;;;;;;;;;;;;8.37;95.47;95805.00;1279565;23;19904;-63
2021/05/21 02:24:08;;;;;;;;;;;;;;;8.37;95.72;95807.66;1280122;23;19908;-63
2021/05/21 02:24:38;;;;;;;;;;;;;;;8.39;95.56;95810.84;1280305;23;19952;-63
2021/05/21 02:25:09;;;;;;;;;;;;;;;8.39;95.56;95810.84;1279919;23;19908;-63
2021/05/21 02:25:40;;;;;;;;;;;;;;;8.40;95.41;95796.50;1279962;23;19993;-62
2021/05/21 02:26:10;;;;;;;;;;;;;;;8.41;95.61;95809.53;1273896;23;19904;-63
2021/05/21 02:26:40;;;;;;;;;;;;;;;8.41;95.89;95806.09;1273460;23;20281;-63
2021/05/21 02:27:11;;;;;;;;;;;;;;;8.39;95.71;95802.84;1279994;23;19904;-62
2021/05/21 02:27:41;;;;;;;;;;;;;;;8.40;95.38;95807.16;1279960;23;19914;-61
2021/05/21 02:28:11;;;;;;;;;;;;;;;8.41;95.64;95798.09;1280143;23;19900;-62
2021/05/21 02:28:41;;;;;;;;;;;;;;;8.42;95.42;95792.50;1279127;23;19911;-62
2021/05/21 02:29:12;;;;;;;;;;;;;;;8.44;95.54;95803.69;1279292;23;19908;-61
2021/05/21 02:29:42;;;;;;;;;;;;;;;8.43;95.20;95804.75;1279293;23;20248;-62
2021/05/21 02:30:13;;;;;;;;;;;;;;;8.46;95.38;95798.91;1279263;23;19919;-62
2021/05/21 02:30:43;;;;;;;;;;;;;;;8.44;95.58;95802.88;1279329;23;20088;-61
2021/05/21 02:31:13;;;;;;;;;;;;;;;8.47;95.56;95799.72;1279266;23;19904;-61
2021/05/21 02:31:44;;;;;;;;;;;;;;;8.45;94.94;95799.97;1279169;23;19918;-62
2021/05/21 02:32:14;;;;;;;;;;;;;;;8.48;95.16;95798.63;1279039;23;20321;-62
2021/05/21 02:32:44;;;;;;;;;;;;;;;8.45;94.93;95796.53;1279117;23;20299;-61
2021/05/21 02:33:14;;;;;;;;;;;;;;;8.44;94.83;95800.22;1279002;23;19905;-63
2021/05/21 02:33:45;;;;;;;;;;;;;;;8.46;94.91;95800.78;1278586;23;19930;-62
2021/05/21 02:34:15;;;;;;;;;;;;;;;8.49;95.28;95810.88;1278771;23;19939;-62
2021/05/21 02:34:45;;;;;;;;;;;;;;;8.49;95.02;95803.69;1278434;23;20318;-62
2021/05/21 02:35:16;;;;;;;;;;;;;;;8.50;94.61;95802.66;1278800;23;19904;-62
2021/05/21 02:35:46;;;;;;;;;;;;;;;8.48;94.45;95799.44;1279205;23;20002;-62
2021/05/21 02:36:16;;;;;;;;;;;;;;;8.49;94.51;95808.22;1279105;23;19908;-62
2021/05/21 02:36:46;;;;;;;;;;;;;;;8.47;94.54;95805.03;1279070;23;19904;-62
2021/05/21 02:37:17;;;;;;;;;;;;;;;8.43;94.70;95804.75;1278939;23;20167;-63
2021/05/21 02:37:47;;;;;;;;;;;;;;;8.42;94.59;95805.00;1278982;23;19936;-62
2021/05/21 02:38:17;;;;;;;;;;;;;;;8.46;94.64;95800.78;1279239;23;19915;-62
2021/05/21 02:38:48;;;;;;;;;;;;;;;8.46;94.87;95796.25;1278916;23;19904;-62
2021/05/21 02:39:18;;;;;;;;;;;;;;;8.42;94.46;95807.69;1279195;23;19904;-63
2021/05/21 02:39:48;;;;;;;;;;;;;;;8.48;94.49;95798.63;1278508;23;19904;-63
2021/05/21 02:40:18;;;;;;;;;;;;;;;8.46;94.56;95798.91;1278759;23;20242;-63
2021/05/21 02:40:49;;;;;;;;;;;;;;;8.46;94.87;95798.91;1278704;23;19942;-62
2021/05/21 02:41:19;;;;;;;;;;;;;;;8.41;94.87;95798.88;1278760;23;19911;-61
2021/05/21 02:41:49;;;;;;;;;;;;;;;8.40;95.04;95801.81;1279104;23;19982;-62